Time;durP1;ratioP1;P1;durP2;ratioP2;P2;SDS_P1;SDS_P2;PMS_P1;PMS_P2;Temp;Humidity;BMP_temperature;BMP_pressure;BME280_temperature;BME280_humidity;BME280_pressure;Samples;Min_cycle;Max_cycle;Signal;HPM_P1;HPM_P2
2022/06/28 00:00:20;;;;;;;28.38;2.78;;;;;;;26.52;49.11;99748.69;7315125;19;129325;-41
2022/06/28 00:02:46;;;;;;;35.87;3.33;;;;;;;26.66;49.94;99726.91;7310218;19;131114;-40
2022/06/28 00:05:11;;;;;;;36.93;3.10;;;;;;;26.84;50.32;99745.16;7313165;19;131989;-39
2022/06/28 00:07:37;;;;;;;79.33;6.60;;;;;;;26.88;50.39;99736.75;7306452;19;131192;-40
2022/06/28 00:10:03;;;;;;;103.60;8.63;;;;;;;26.90;50.37;99729.47;7295759;19;130247;-39
2022/06/28 00:12:29;;;;;;;77.60;6.63;;;;;;;26.93;50.39;99730.94;7295739;19;131395;-41
2022/06/28 00:17:40;;;;;;;70.35;6.05;;;;;;;26.98;51.21;99725.97;7296098;19;130595;-41
2022/06/28 00:20:06;;;;;;;44.03;4.00;;;;;;;27.00;51.13;99731.06;7297220;19;130867;-41
2022/06/28 00:22:31;;;;;;;42.67;3.93;;;;;;;27.00;51.30;99709.97;7310647;19;130235;-42
2022/06/28 00:24:56;;;;;;;53.90;4.83;;;;;;;26.99;51.24;99708.34;7311155;19;130177;-40
2022/06/28 00:27:22;;;;;;;30.40;3.07;;;;;;;27.00;50.30;99694.13;7306013;19;130399;-38
2022/06/28 00:29:47;;;;;;;13.97;1.70;;;;;;;26.72;49.46;99691.97;7312810;19;129156;-39
2022/06/28 00:32:12;;;;;;;39.60;3.67;;;;;;;26.51;48.67;99688.19;7310014;19;129410;-40
2022/06/28 00:34:38;;;;;;;27.97;2.53;;;;;;;26.51;48.24;99688.19;7312145;19;130262;-38
2022/06/28 00:37:04;;;;;;;36.80;3.13;;;;;;;26.48;47.66;99673.53;7308982;19;129585;-40
2022/06/28 00:39:30;;;;;;;41.92;3.75;;;;;;;26.59;48.92;99681.06;7311426;19;129265;-41
2022/06/28 00:41:55;;;;;;;64.87;5.37;;;;;;;26.77;50.77;99697.53;7310633;19;129545;-40
2022/06/28 00:44:22;;;;;;;26.80;2.70;;;;;;;26.89;50.51;99703.28;7311222;19;130291;-39
2022/06/28 00:46:48;;;;;;;46.03;4.07;;;;;;;26.94;50.53;99716.75;7307490;19;130489;-40
2022/06/28 00:49:14;;;;;;;29.00;2.73;;;;;;;26.88;50.48;99680.50;7312612;19;128981;-43
2022/06/28 00:51:40;;;;;;;58.07;4.80;;;;;;;26.97;51.18;99689.22;7309988;19;128894;-40
2022/06/28 00:54:06;;;;;;;26.33;2.73;;;;;;;27.00;50.81;99683.56;7309720;19;129483;-40
2022/06/28 00:56:32;;;;;;;31.85;3.05;;;;;;;27.01;50.90;99666.78;7309705;19;129226;-41
2022/06/28 00:58:58;;;;;;;38.87;3.20;;;;;;;27.00;50.54;99663.31;7310397;19;129961;-41
2022/06/28 01:01:25;;;;;;;28.00;2.63;;;;;;;26.98;51.25;99660.00;7311949;19;130653;-41
2022/06/28 01:03:51;;;;;;;26.15;2.58;;;;;;;27.00;51.01;99646.63;7305332;19;129804;-42
2022/06/28 01:06:17;;;;;;;40.35;3.95;;;;;;;26.65;48.55;99626.81;7308821;19;129273;-41
2022/06/28 01:08:45;;;;;;;24.67;2.53;;;;;;;26.51;48.27;99609.91;7312145;19;129752;-39
2022/06/28 01:11:20;;;;;;;40.58;3.53;;;;;;;26.51;47.78;99590.63;7309724;19;129067;-41
2022/06/28 01:13:54;;;;;;;32.60;3.42;;;;;;;26.52;47.71;99595.72;7309437;19;129449;-41
2022/06/28 01:16:21;;;;;;;38.47;3.30;;;;;;;26.72;49.52;99615.47;7309654;19;130353;-39
2022/06/28 01:18:46;;;;;;;;;;;;;;;26.85;53.20;99621.00;7309334;19;130466;-40
2022/06/28 01:21:13;;;;;;;16.75;2.13;;;;;;;26.89;50.12;99651.31;7311116;19;131647;-39
2022/06/28 01:23:43;;;;;;;38.15;3.40;;;;;;;26.94;49.89;99642.84;7309362;19;130116;-40
2022/06/28 01:26:11;;;;;;;30.23;2.80;;;;;;;26.96;50.56;99661.19;7308301;19;130495;-38
2022/06/28 01:28:37;;;;;;;30.80;3.15;;;;;;;26.98;50.84;99659.16;7310410;19;129202;-41
2022/06/28 01:31:03;;;;;;;40.05;3.38;;;;;;;26.98;51.07;99669.72;7310898;19;131258;-41
2022/06/28 01:33:29;;;;;;;116.35;11.48;;;;;;;26.98;51.38;99699.59;7302344;19;129289;-41
2022/06/28 01:35:55;;;;;;;34.13;3.20;;;;;;;27.01;51.26;99711.63;7308855;19;130475;-40
2022/06/28 01:38:22;;;;;;;61.03;5.10;;;;;;;27.00;51.22;99720.53;7305124;19;130114;-39
2022/06/28 01:40:48;;;;;;;;;;;;;;;27.05;53.74;99737.50;7312030;19;129129;-41
2022/06/28 01:43:13;;;;;;;40.00;3.40;;;;;;;26.88;49.68;99738.53;7305904;19;130154;-43
2022/06/28 01:45:41;;;;;;;33.07;3.13;;;;;;;26.54;47.87;99751.94;7309061;19;130432;-40
2022/06/28 01:48:07;;;;;;;40.78;3.60;;;;;;;26.48;47.54;99751.78;7308165;19;128947;-40
2022/06/28 01:50:32;;;;;;;44.10;3.97;;;;;;;26.51;47.73;99752.28;7309706;19;129253;-40
2022/06/28 01:52:58;;;;;;;33.47;3.33;;;;;;;26.58;49.34;99742.72;7308211;19;130198;-41
2022/06/28 01:55:23;;;;;;;27.23;2.80;;;;;;;26.79;50.15;99744.84;7308261;19;129698;-40
2022/06/28 01:57:49;;;;;;;28.00;2.77;;;;;;;26.87;49.68;99745.63;7306993;19;131558;-39
2022/06/28 02:00:15;;;;;;;19.80;2.07;;;;;;;26.91;50.71;99733.75;7309317;19;130962;-40
2022/06/28 02:02:40;;;;;;;31.20;2.83;;;;;;;26.87;50.71;99715.81;7306340;19;129922;-40
2022/06/28 02:05:06;;;;;;;26.17;2.50;;;;;;;26.99;50.36;99732.09;7309812;19;131339;-40
2022/06/28 02:07:32;;;;;;;71.33;5.90;;;;;;;27.01;50.34;99738.03;7305183;19;129475;-40
2022/06/28 02:09:57;;;;;;;39.80;3.67;;;;;;;27.01;51.51;99732.75;7309260;19;129242;-40
2022/06/28 02:12:23;;;;;;;70.47;5.83;;;;;;;27.01;50.84;99738.81;7306845;19;129261;-41
2022/06/28 02:14:48;;;;;;;104.30;8.77;;;;;;;27.01;50.60;99752.03;7291200;19;131990;-37
2022/06/28 02:17:13;;;;;;;70.33;5.90;;;;;;;27.04;51.20;99750.88;7290198;19;130424;-38
2022/06/28 02:19:39;;;;;;;74.17;6.40;;;;;;;27.03;51.18;99768.50;7292325;19;130307;-39
2022/06/28 02:22:04;;;;;;;47.80;4.30;;;;;;;26.70;48.80;99782.78;7304585;19;129606;-40
2022/06/28 02:24:31;;;;;;;35.83;3.60;;;;;;;26.53;48.42;99795.16;7308308;19;131204;-40
2022/06/28 02:26:56;;;;;;;90.95;7.32;;;;;;;26.48;47.48;99808.00;7301601;19;130908;-37
2022/06/28 02:29:22;;;;;;;29.67;2.83;;;;;;;26.52;47.30;99811.13;7307390;19;129312;-39
2022/06/28 02:31:47;;;;;;;36.13;3.20;;;;;;;26.71;49.94;99816.91;7308610;19;130018;-39
2022/06/28 02:40:21;;;;;;;38.53;3.63;;;;;;;26.85;49.86;99829.44;7302822;19;130140;-40
2022/06/28 02:42:26;;;;;;;89.78;7.65;;;;;;;26.99;51.29;99829.72;7302388;19;129663;-39
2022/06/28 02:44:51;;;;;;;30.27;3.00;;;;;;;27.02;51.42;99839.94;7314832;19;129196;-40
2022/06/28 02:47:17;;;;;;;261.83;21.77;;;;;;;27.02;50.53;99842.59;7289309;19;129347;-37
2022/06/28 02:49:42;;;;;;;19.70;2.83;;;;;;;27.05;51.34;99831.69;7295807;19;129863;-39
2022/06/28 02:52:08;;;;;;;63.60;6.60;;;;;;;27.06;51.15;99839.44;7312707;19;130298;-40
2022/06/28 02:54:33;;;;;;;26.10;3.30;;;;;;;27.08;51.70;99840.09;7314142;19;129422;-40
2022/06/28 02:56:59;;;;;;;24.73;3.03;;;;;;;27.13;51.79;99847.50;7312900;19;130734;-39
2022/06/28 02:59:24;;;;;;;24.33;3.30;;;;;;;26.59;48.27;99855.13;7307027;19;129046;-41
2022/06/28 03:01:49;;;;;;;26.87;3.20;;;;;;;26.55;47.79;99851.19;7314273;19;129851;-38
2022/06/28 03:04:15;;;;;;;27.23;3.13;;;;;;;26.60;47.96;99850.69;7313195;19;130051;-38
2022/06/28 03:06:40;;;;;;;7.77;1.60;;;;;;;26.69;48.34;99837.34;7306045;19;129936;-40
2022/06/28 03:09:05;;;;;;;25.83;3.30;;;;;;;26.94;50.64;99838.97;7314374;19;128864;-41
2022/06/28 03:11:31;;;;;;;32.90;3.73;;;;;;;27.08;49.70;99841.91;7313757;19;130661;-40
2022/06/28 03:13:56;;;;;;;25.80;3.27;;;;;;;27.18;50.84;99831.97;7312927;19;130602;-39
2022/06/28 03:16:22;;;;;;;32.13;3.70;;;;;;;27.23;50.45;99832.28;7296706;19;128878;-39
2022/06/28 03:18:47;;;;;;;19.17;2.53;;;;;;;27.26;50.89;99834.56;7311910;19;129301;-38
2022/06/28 03:21:12;;;;;;;19.73;2.70;;;;;;;27.31;50.44;99824.34;7314084;19;129469;-41
2022/06/28 03:23:38;;;;;;;27.83;3.23;;;;;;;27.33;50.18;99823.22;7311303;19;129618;-41
2022/06/28 03:26:03;;;;;;;40.57;4.67;;;;;;;27.36;50.87;99822.03;7296657;19;129809;-41
2022/06/28 03:28:28;;;;;;;38.00;3.83;;;;;;;27.37;50.88;99821.06;7308777;19;129627;-41
2022/06/28 03:30:54;;;;;;;27.50;3.10;;;;;;;27.38;51.07;99815.59;7310671;19;130461;-39
2022/06/28 03:33:19;;;;;;;102.30;11.57;;;;;;;27.26;49.49;99813.47;7292632;19;130779;-41
2022/06/28 03:35:45;;;;;;;28.30;3.27;;;;;;;26.74;47.18;99806.00;7307153;19;130239;-37
2022/06/28 03:38:10;;;;;;;34.53;3.70;;;;;;;26.67;47.23;99805.06;7301724;19;129151;-39
2022/06/28 03:40:35;;;;;;;28.10;3.37;;;;;;;26.68;46.71;99811.97;7310023;19;130089;-41
2022/06/28 03:43:01;;;;;;;89.33;9.33;;;;;;;26.82;49.83;99803.34;7300301;19;131087;-39
2022/06/28 03:45:26;;;;;;;23.73;2.80;;;;;;;27.10;50.43;99797.69;7303820;19;128887;-39
2022/06/28 03:47:52;;;;;;;29.30;3.80;;;;;;;27.21;50.61;99802.59;7308825;19;129376;-38
2022/06/28 03:50:17;;;;;;;38.10;4.27;;;;;;;27.21;50.51;99794.66;7306468;19;130951;-42
2022/06/28 03:52:42;;;;;;;19.80;2.60;;;;;;;27.32;50.22;99804.91;7306538;19;130402;-41
2022/06/28 03:55:08;;;;;;;35.00;3.77;;;;;;;27.29;50.32;99794.69;7298337;19;130957;-40
2022/06/28 03:57:34;;;;;;;46.37;5.43;;;;;;;27.39;50.67;99800.56;7300427;19;131981;-40
2022/06/28 04:00:01;;;;;;;51.67;5.33;;;;;;;27.34;50.73;99797.59;7295971;19;131225;-41
2022/06/28 04:02:26;;;;;;;34.60;4.13;;;;;;;27.39;50.20;99808.47;7303793;19;130625;-38
2022/06/28 04:04:52;;;;;;;74.10;8.27;;;;;;;27.42;50.80;99816.09;7297992;19;130191;-41
2022/06/28 04:07:17;;;;;;;84.23;8.60;;;;;;;27.36;50.45;99801.75;7295167;19;132134;-41
2022/06/28 04:09:43;;;;;;;44.53;4.73;;;;;;;27.41;50.77;99807.34;7308729;19;129924;-39
2022/06/28 04:12:08;;;;;;;46.17;5.10;;;;;;;26.93;48.39;99813.56;7309408;19;130491;-41
2022/06/28 04:14:34;;;;;;;78.00;8.37;;;;;;;26.76;48.05;99814.59;7306017;19;130522;-39
2022/06/28 04:16:59;;;;;;;34.03;4.33;;;;;;;26.71;48.54;99816.91;7293120;19;131800;-40
2022/06/28 04:19:24;;;;;;;31.90;3.97;;;;;;;26.72;47.98;99812.47;7300877;19;130819;-40
2022/06/28 04:21:50;;;;;;;60.23;6.57;;;;;;;26.72;47.85;99817.75;7305743;19;129806;-37
2022/06/28 04:24:15;;;;;;;106.60;12.13;;;;;;;27.01;49.73;99817.19;7300046;19;132229;-38
2022/06/28 04:26:40;;;;;;;43.13;5.50;;;;;;;27.23;49.82;99805.88;7300660;19;130298;-37
2022/06/28 04:29:06;;;;;;;50.53;6.13;;;;;;;27.30;49.82;99796.31;7303496;19;130981;-38
2022/06/28 04:31:32;;;;;;;73.43;7.87;;;;;;;27.31;50.47;99795.31;7307539;19;130330;-39
2022/06/28 04:33:57;;;;;;;32.67;4.33;;;;;;;27.37;50.69;99794.66;7304976;19;130324;-39
2022/06/28 04:36:23;;;;;;;48.37;6.03;;;;;;;27.39;50.83;99796.09;7302526;19;131396;-41
2022/06/28 04:38:48;;;;;;;58.90;7.60;;;;;;;27.43;50.69;99791.31;7300750;19;130303;-41
2022/06/28 04:41:14;;;;;;;29.90;4.00;;;;;;;27.43;50.72;99801.88;7311114;19;131258;-40
2022/06/28 04:43:39;;;;;;;18.07;3.10;;;;;;;27.44;50.40;99799.06;7309006;19;128909;-38
2022/06/28 04:46:05;;;;;;;118.83;13.87;;;;;;;27.43;51.04;99791.31;7289936;19;131118;-39
2022/06/28 04:48:31;;;;;;;29.07;4.07;;;;;;;26.87;48.51;99793.13;7303992;19;131775;-36
2022/06/28 04:51:10;;;;;;;38.47;5.47;;;;;;;26.78;48.08;99790.69;7306768;19;129171;-39
2022/06/28 04:53:37;;;;;;;46.88;6.30;;;;;;;26.76;47.52;99782.09;7303135;19;129816;-40
2022/06/28 04:56:02;;;;;;;45.90;5.85;;;;;;;26.75;48.09;99776.03;7298541;19;130279;-41
2022/06/28 04:58:27;;;;;;;39.57;5.10;;;;;;;26.96;49.64;99780.72;7303361;19;130764;-37
2022/06/28 05:00:53;;;;;;;38.50;5.20;;;;;;;27.17;50.11;99775.72;7307021;19;130388;-41
2022/06/28 05:03:18;;;;;;;75.60;9.23;;;;;;;27.30;50.08;99780.47;7301700;19;130446;-40
2022/06/28 05:05:45;;;;;;;40.70;5.27;;;;;;;27.36;50.46;99779.78;7306761;19;129294;-41
2022/06/28 05:08:10;;;;;;;32.17;5.15;;;;;;;27.41;50.08;99783.56;7300090;19;130443;-38
2022/06/28 05:10:36;;;;;;;52.37;6.33;;;;;;;27.42;50.22;99779.91;7309418;19;129653;-40
2022/06/28 05:13:01;;;;;;;43.07;5.60;;;;;;;27.44;50.18;99782.38;7307365;19;129590;-39
2022/06/28 05:15:27;;;;;;;31.93;4.53;;;;;;;27.46;50.17;99780.41;7312164;19;129554;-40
2022/06/28 05:17:52;;;;;;;22.43;3.93;;;;;;;27.45;50.26;99790.16;7299086;19;130026;-41
2022/06/28 05:20:18;;;;;;;42.97;5.73;;;;;;;27.47;50.71;99797.91;7309231;19;129761;-39
2022/06/28 05:22:43;;;;;;;47.63;6.20;;;;;;;27.47;51.22;99792.63;7308621;19;129845;-40
2022/06/28 05:25:08;;;;;;;57.87;7.07;;;;;;;27.48;51.05;99792.44;7302112;19;128914;-41
2022/06/28 05:27:34;;;;;;;37.97;5.27;;;;;;;27.27;48.53;99794.81;7307190;19;129125;-40
2022/06/28 05:29:59;;;;;;;45.23;6.37;;;;;;;26.70;47.76;99775.72;7291415;19;130227;-35
2022/06/28 05:32:25;;;;;;;37.93;5.43;;;;;;;26.72;48.17;99797.47;7288934;19;129722;-41
2022/06/28 05:34:50;;;;;;;98.53;11.03;;;;;;;26.70;47.63;99806.53;7300773;19;129669;-38
2022/06/28 05:37:15;;;;;;;25.40;4.53;;;;;;;26.69;47.00;99813.59;7307255;19;130272;-38
2022/06/28 05:39:41;;;;;;;25.80;4.37;;;;;;;26.99;50.69;99814.69;7309768;19;129313;-37
2022/06/28 05:42:06;;;;;;;26.00;4.53;;;;;;;27.12;51.40;99806.25;7310449;19;129700;-38
2022/06/28 05:44:31;;;;;;;26.67;4.57;;;;;;;27.22;51.43;99814.81;7310879;19;128844;-40
2022/06/28 05:46:57;;;;;;;39.27;5.17;;;;;;;27.27;51.38;99815.13;7306941;19;129578;-39
2022/06/28 05:49:22;;;;;;;21.03;3.83;;;;;;;27.29;51.09;99816.63;7311197;19;129808;-40
2022/06/28 05:51:48;;;;;;;25.47;4.47;;;;;;;27.33;50.98;99822.38;7310878;19;129163;-41
2022/06/28 05:54:13;;;;;;;27.60;4.73;;;;;;;27.37;50.88;99828.97;7308899;19;129169;-38
2022/06/28 05:56:38;;;;;;;19.30;3.90;;;;;;;27.38;52.14;99820.88;7309397;19;131011;-40
2022/06/28 05:59:04;;;;;;;34.57;5.13;;;;;;;27.35;51.84;99830.97;7306582;19;129379;-41
2022/06/28 06:01:30;;;;;;;18.00;3.60;;;;;;;27.36;51.70;99828.16;7310086;19;130224;-40
2022/06/28 06:03:57;;;;;;;26.47;4.77;;;;;;;27.36;51.77;99832.59;7310365;19;129467;-41
2022/06/28 06:06:24;;;;;;;30.80;4.90;;;;;;;27.35;51.43;99830.97;7307471;19;129882;-40
2022/06/28 06:08:51;;;;;;;19.52;4.15;;;;;;;26.69;47.38;99826.78;7310930;19;130528;-38
2022/06/28 06:11:16;;;;;;;9.90;2.90;;;;;;;26.63;47.68;99838.00;7310016;19;129588;-37
2022/06/28 06:13:41;;;;;;;19.87;3.73;;;;;;;26.58;47.36;99842.94;7311125;19;129226;-40
2022/06/28 06:16:07;;;;;;;17.63;3.90;;;;;;;26.59;47.42;99838.50;7309276;19;129859;-40
2022/06/28 06:18:32;;;;;;;29.10;4.63;;;;;;;26.90;51.22;99848.22;7303019;19;129720;-41
2022/06/28 06:20:57;;;;;;;25.80;4.67;;;;;;;27.07;52.02;99845.53;7316456;19;129719;-40
2022/06/28 06:23:23;;;;;;;26.57;4.53;;;;;;;27.16;51.00;99850.63;7312931;19;129903;-36
2022/06/28 06:25:48;;;;;;;17.70;3.87;;;;;;;27.24;51.51;99855.06;7314608;19;130332;-39
2022/06/28 06:28:14;;;;;;;21.63;4.43;;;;;;;27.27;51.99;99849.44;7306918;19;130914;-41
2022/06/28 06:30:39;;;;;;;17.47;3.80;;;;;;;27.25;52.34;99840.88;7310838;19;129362;-34
2022/06/28 06:33:05;;;;;;;25.97;4.77;;;;;;;27.32;52.03;99847.94;7309876;19;128965;-33
2022/06/28 06:35:31;;;;;;;28.50;4.95;;;;;;;27.33;51.10;99851.44;7314018;19;130132;-36
2022/06/28 06:38:00;;;;;;;26.20;4.57;;;;;;;27.34;51.86;99860.97;7304314;19;133803;-33
2022/06/28 06:40:27;;;;;;;37.08;4.97;;;;;;;27.32;51.31;99863.00;7315727;19;129470;-33
2022/06/28 06:42:52;;;;;;;28.63;4.88;;;;;;;27.33;51.97;99869.91;7299651;19;129820;-40
2022/06/28 06:45:17;;;;;;;22.37;4.20;;;;;;;27.11;49.13;99876.69;7315788;19;128995;-34
2022/06/28 06:47:43;;;;;;;29.63;4.97;;;;;;;26.63;47.62;99877.56;7302017;19;131026;-38
2022/06/28 06:50:08;;;;;;;35.73;6.10;;;;;;;26.55;47.49;99880.19;7316716;19;130273;-40
2022/06/28 06:52:35;;;;;;;67.47;8.50;;;;;;;26.54;47.45;99893.56;7309220;19;129331;-34
2022/06/28 06:55:01;;;;;;;20.75;3.70;;;;;;;26.59;48.73;99897.31;7308519;19;130837;-34
2022/06/28 06:57:26;;;;;;;95.73;11.20;;;;;;;26.92;51.80;99904.28;7309870;19;129261;-38
2022/06/28 06:59:52;;;;;;;16.27;3.80;;;;;;;27.07;51.31;99911.53;7308024;19;130907;-35
2022/06/28 07:02:17;;;;;;;17.07;3.53;;;;;;;27.12;51.75;99917.97;7309142;19;130382;-35
2022/06/28 07:04:42;;;;;;;40.33;6.43;;;;;;;27.21;51.69;99913.47;7300505;19;129916;-40
2022/06/28 07:07:08;;;;;;;10.97;3.47;;;;;;;27.25;51.63;99923.53;7314682;19;129718;-36
2022/06/28 07:09:33;;;;;;;23.23;4.27;;;;;;;27.28;51.87;99930.31;7313286;19;130058;-35
2022/06/28 07:11:59;;;;;;;24.13;4.07;;;;;;;27.28;51.49;99931.16;7310797;19;129163;-40
2022/06/28 07:14:25;;;;;;;18.37;3.90;;;;;;;27.29;52.12;99932.78;7305535;19;129319;-34
2022/06/28 07:16:50;;;;;;;31.60;4.97;;;;;;;27.29;51.76;99938.06;7309455;19;129160;-39
2022/06/28 07:19:16;;;;;;;37.93;5.93;;;;;;;27.29;51.63;99948.63;7301859;19;129180;-40
2022/06/28 07:21:42;;;;;;;17.43;4.17;;;;;;;27.31;52.81;99940.53;7317522;19;129129;-40
2022/06/28 07:24:09;;;;;;;;;;;;;;;26.72;47.95;99944.38;7311345;19;130750;-41
2022/06/28 07:26:35;;;;;;;25.85;4.47;;;;;;;26.59;48.25;99950.06;7314386;19;130362;-41
2022/06/28 07:29:02;;;;;;;57.55;7.18;;;;;;;26.53;47.07;99953.38;7306683;19;129544;-39
2022/06/28 07:31:30;;;;;;;24.38;4.25;;;;;;;26.50;47.52;99951.06;7315162;19;130915;-40
2022/06/28 07:33:59;;;;;;;34.38;5.32;;;;;;;26.73;50.77;99951.28;7311847;19;129891;-37
2022/06/28 07:36:25;;;;;;;17.48;3.95;;;;;;;26.97;51.69;99955.75;7313544;19;130074;-36
2022/06/28 07:38:50;;;;;;;37.27;5.10;;;;;;;27.08;51.86;99960.66;7310146;19;129543;-40
2022/06/28 07:41:16;;;;;;;27.63;4.37;;;;;;;27.12;51.58;99957.56;7315629;19;128931;-40
2022/06/28 07:43:42;;;;;;;34.17;4.63;;;;;;;27.20;51.36;99959.34;7313227;19;129183;-40
2022/06/28 07:46:07;;;;;;;28.37;4.77;;;;;;;27.23;51.51;99967.75;7312820;19;129188;-38
2022/06/28 07:48:33;;;;;;;30.37;4.93;;;;;;;27.24;51.39;99965.97;7314488;19;129148;-42
2022/06/28 07:53:42;;;;;;;26.98;4.35;;;;;;;27.27;51.26;99965.63;7313670;19;129087;-39
2022/06/28 07:56:08;;;;;;;21.07;3.93;;;;;;;27.30;51.76;99976.72;7309853;19;130409;-41
2022/06/28 07:58:33;;;;;;;43.13;6.07;;;;;;;27.29;51.84;99979.50;7306552;19;130139;-41
2022/06/28 08:00:59;;;;;;;40.57;4.90;;;;;;;26.79;47.61;99982.28;7310365;19;130646;-40
2022/06/28 08:03:25;;;;;;;20.30;3.80;;;;;;;27.15;50.82;99980.13;7310083;19;130173;-41
2022/06/28 08:05:50;;;;;;;50.47;6.97;;;;;;;26.68;49.05;99986.06;7299868;19;130682;-38
2022/06/28 08:08:16;;;;;;;72.53;8.77;;;;;;;26.47;48.01;99987.47;7295372;19;130248;-41
2022/06/28 08:10:42;;;;;;;50.80;7.23;;;;;;;26.42;47.98;99987.97;7298360;19;129683;-41
2022/06/28 08:13:08;;;;;;;71.07;8.57;;;;;;;26.37;46.97;99976.25;7295629;19;132528;-39
2022/06/28 08:15:33;;;;;;;32.53;4.53;;;;;;;26.47;47.28;99998.03;7297610;19;130255;-40
2022/06/28 08:17:58;;;;;;;18.87;3.33;;;;;;;26.46;46.95;99997.19;7314780;19;129396;-40
2022/06/28 08:20:24;;;;;;;33.37;5.00;;;;;;;26.61;50.24;99995.56;7312351;19;130764;-41
2022/06/28 08:22:49;;;;;;;25.47;4.27;;;;;;;26.88;50.90;100002.41;7314923;19;129568;-37
2022/06/28 08:25:14;;;;;;;5.47;2.43;;;;;;;27.02;51.15;100006.22;7310676;19;130072;-39
2022/06/28 08:27:40;;;;;;;18.97;3.47;;;;;;;27.08;51.16;100005.53;7312896;19;129539;-39
2022/06/28 08:30:06;;;;;;;44.53;5.63;;;;;;;27.13;51.52;100011.97;7307213;19;130139;-40
2022/06/28 08:32:32;;;;;;;23.10;3.92;;;;;;;27.17;51.21;100008.03;7314288;19;131021;-40
2022/06/28 08:34:57;;;;;;;30.33;4.50;;;;;;;27.21;51.56;100013.78;7311460;19;129779;-40
2022/06/28 08:37:22;;;;;;;17.83;3.70;;;;;;;27.23;51.22;100022.38;7310608;19;129229;-39
2022/06/28 08:39:48;;;;;;;27.37;3.97;;;;;;;27.25;51.83;100023.88;7303391;19;131373;-40
2022/06/28 08:42:24;;;;;;;15.03;3.10;;;;;;;27.25;52.16;100020.41;7310693;19;130081;-39
2022/06/28 08:44:50;;;;;;;30.77;5.03;;;;;;;27.18;51.22;100008.84;7312520;19;131444;-42
2022/06/28 08:47:18;;;;;;;18.43;3.70;;;;;;;27.25;52.15;100025.69;7309340;19;130298;-41
2022/06/28 08:49:46;;;;;;;19.67;3.60;;;;;;;27.25;51.65;100020.41;7313878;19;129956;-43
2022/06/28 08:52:13;;;;;;;15.30;3.08;;;;;;;27.11;49.70;100016.59;7309655;19;130395;-40
2022/06/28 08:54:40;;;;;;;28.50;4.50;;;;;;;26.55;47.38;100025.25;7311601;19;129824;-37
2022/06/28 08:57:06;;;;;;;45.20;5.43;;;;;;;26.47;47.37;100017.31;7309553;19;128886;-39
2022/06/28 08:59:33;;;;;;;36.23;4.67;;;;;;;26.37;47.04;100011.34;7308369;19;129690;-40
2022/06/28 09:01:58;;;;;;;;;;;;;;;26.67;51.68;100016.09;7314534;19;129166;-40
2022/06/28 09:04:23;;;;;;;22.70;3.95;;;;;;;26.89;51.31;100015.44;7311699;19;130918;-38
2022/06/28 09:06:49;;;;;;;6.37;2.27;;;;;;;27.01;51.26;100012.50;7310815;19;129447;-37
2022/06/28 09:09:14;;;;;;;16.73;3.40;;;;;;;27.09;50.83;100009.84;7311343;19;128822;-39
2022/06/28 09:11:43;;;;;;;20.60;3.87;;;;;;;27.15;51.82;100014.47;7313250;19;129388;-42
2022/06/28 09:14:30;;;;;;;19.25;3.42;;;;;;;27.22;53.07;100007.53;7312218;19;130470;-39
2022/06/28 09:16:58;;;;;;;28.23;4.25;;;;;;;27.21;51.79;100009.34;7310346;19;129036;-40
2022/06/28 09:19:33;;;;;;;30.45;4.28;;;;;;;27.24;52.73;100013.47;7309188;19;130565;-40
2022/06/28 09:22:00;;;;;;;18.50;3.33;;;;;;;27.14;51.74;99986.41;7313653;19;130168;-40
2022/06/28 09:24:26;;;;;;;;;;;;;;;27.34;52.67;100006.22;7312173;19;129869;-40
2022/06/28 09:26:59;;;;;;;24.58;4.05;;;;;;;27.25;51.57;100008.03;7309463;19;130987;-40
2022/06/28 09:29:25;;;;;;;32.50;3.97;;;;;;;27.15;48.83;100010.00;7311364;19;129167;-40
2022/06/28 09:31:50;;;;;;;37.00;4.87;;;;;;;26.56;48.11;100013.69;7308587;19;129937;-40
2022/06/28 09:34:16;;;;;;;15.37;2.57;;;;;;;26.44;47.23;100015.00;7312740;19;130444;-38
2022/06/28 09:36:55;;;;;;;31.97;4.43;;;;;;;26.39;46.82;100012.03;7307991;19;129108;-40
2022/06/28 09:39:22;;;;;;;18.80;3.28;;;;;;;26.56;50.35;100013.69;7309496;19;129127;-41
2022/06/28 09:41:48;;;;;;;;;;;;;;;26.94;52.80;100015.75;7312220;19;130250;-40
2022/06/28 09:44:16;;;;;;;17.90;2.88;;;;;;;27.01;51.54;100012.50;7312013;19;130225;-41
2022/06/28 09:46:43;;;;;;;21.92;3.25;;;;;;;27.04;50.98;100001.59;7309953;19;129550;-41
2022/06/28 09:49:09;;;;;;;29.50;4.13;;;;;;;27.10;50.57;100004.41;7303267;19;129782;-37
2022/06/28 09:51:36;;;;;;;34.00;4.75;;;;;;;27.15;51.47;100003.91;7311085;19;130141;-41
2022/06/28 09:54:08;;;;;;;16.42;3.10;;;;;;;27.16;52.13;100001.09;7317329;19;129669;-40
2022/06/28 09:56:38;;;;;;;21.75;3.53;;;;;;;27.19;52.01;100002.59;7317125;19;128735;-39
2022/06/28 09:59:07;;;;;;;23.10;4.00;;;;;;;27.19;51.98;99998.13;7313124;19;129650;-39
2022/06/28 10:01:33;;;;;;;17.83;3.22;;;;;;;27.21;51.30;99995.31;7318014;19;129299;-40
2022/06/28 10:03:59;;;;;;;23.43;3.73;;;;;;;27.20;51.63;99991.03;7317735;19;129375;-40
2022/06/28 10:06:25;;;;;;;19.53;3.00;;;;;;;27.22;52.09;100000.41;7312132;19;131281;-39
2022/06/28 10:08:51;;;;;;;20.15;3.35;;;;;;;26.54;47.60;99997.22;7315963;19;129818;-39
2022/06/28 10:11:19;;;;;;;13.63;2.40;;;;;;;26.36;47.37;99985.97;7317405;19;130212;-38
2022/06/28 10:16:48;;;;;;;23.77;3.63;;;;;;;26.51;49.60;99988.81;7314972;19;129211;-38
2022/06/28 10:19:17;;;;;;;17.27;2.97;;;;;;;26.84;51.82;99972.06;7317851;19;129656;-38
2022/06/28 10:21:52;;;;;;;24.90;3.33;;;;;;;26.98;52.92;99976.69;7316608;19;130093;-40
2022/06/28 10:24:18;;;;;;;17.70;2.75;;;;;;;26.99;51.39;99966.97;7318036;19;130336;-39
2022/06/28 10:26:46;;;;;;;19.13;3.17;;;;;;;27.10;51.06;99980.66;7313419;19;129398;-38
2022/06/28 10:29:13;;;;;;;17.55;3.17;;;;;;;27.13;51.28;99971.56;7316859;19;129389;-38
2022/06/28 10:31:42;;;;;;;;;;;;;;;27.27;52.47;99973.53;7318014;19;129054;-41
2022/06/28 10:34:13;;;;;;;22.25;3.13;;;;;;;27.18;52.05;99969.25;7317969;19;129656;-39
2022/06/28 10:36:50;;;;;;;19.98;3.33;;;;;;;27.16;52.13;99973.84;7314954;19;129109;-38
2022/06/28 10:39:24;;;;;;;20.15;3.22;;;;;;;27.19;52.93;99970.91;7315893;19;129095;-38
2022/06/28 10:42:05;;;;;;;16.17;2.47;;;;;;;27.20;52.80;99975.19;7316320;19;130760;-41
2022/06/28 10:44:31;;;;;;;38.15;4.80;;;;;;;27.20;51.98;99967.25;7313396;19;129744;-40
2022/06/28 10:47:05;;;;;;;21.20;3.20;;;;;;;26.58;47.37;99964.25;7316189;19;129423;-42
2022/06/28 10:49:45;;;;;;;28.83;4.03;;;;;;;26.41;47.69;99970.47;7312071;19;130050;-41
2022/06/28 10:52:15;;;;;;;17.73;2.88;;;;;;;26.38;47.13;99968.19;7316583;19;130150;-39
2022/06/28 10:54:52;;;;;;;25.35;3.42;;;;;;;26.36;48.89;99967.50;7315942;19;129334;-41
2022/06/28 10:57:18;;;;;;;15.90;2.75;;;;;;;26.72;51.41;99963.66;7312957;19;130060;-37
2022/06/28 10:59:48;;;;;;;7.60;2.30;;;;;;;26.90;52.08;99959.06;7313235;19;130129;-41
2022/06/28 11:02:13;;;;;;;30.52;4.07;;;;;;;26.90;50.51;99945.84;7310032;19;133271;-39
2022/06/28 11:04:38;;;;;;;23.30;3.77;;;;;;;27.04;50.95;99954.09;7314495;19;129186;-38
2022/06/28 11:07:19;;;;;;;20.93;3.27;;;;;;;27.13;52.87;99968.91;7313471;19;130568;-41
2022/06/28 11:09:46;;;;;;;18.15;3.05;;;;;;;27.12;51.40;99959.38;7314231;19;130223;-40
2022/06/28 11:12:11;;;;;;;;;;;;;;;27.26;52.22;99958.66;7315985;19;130014;-39
2022/06/28 11:14:52;;;;;;;27.23;3.92;;;;;;;27.21;52.37;99958.34;7315332;19;129502;-40
2022/06/28 11:17:17;;;;;;;10.65;2.28;;;;;;;27.19;51.21;99963.00;7313950;19;128915;-39
2022/06/28 11:19:53;;;;;;;17.33;2.73;;;;;;;27.18;50.80;99961.31;7312762;19;129977;-39
2022/06/28 11:22:27;;;;;;;18.73;2.80;;;;;;;27.20;52.42;99964.63;7314929;19;130312;-41
2022/06/28 11:24:54;;;;;;;64.85;7.00;;;;;;;26.51;47.16;99951.91;7314113;19;129652;-40
2022/06/28 11:27:20;;;;;;;19.92;3.05;;;;;;;26.39;47.11;99948.75;7313428;19;128873;-39